createdAt,value
2019-02-20T00:00:23.725Z,31.60
2019-02-20T00:02:56.671Z,31.60
2019-02-20T00:05:29.514Z,31.60
2019-02-20T00:08:02.712Z,31.60
2019-02-20T00:10:35.705Z,31.60
2019-02-20T00:13:08.875Z,31.60
2019-02-20T00:15:41.682Z,31.60
2019-02-20T00:18:14.564Z,31.70
2019-02-20T00:20:47.314Z,31.80
2019-02-20T00:23:21.054Z,31.90
2019-02-20T00:25:54.029Z,32.00
2019-02-20T00:28:27.203Z,32.10
2019-02-20T00:31:00.119Z,32.10
2019-02-20T00:33:33.116Z,31.80
2019-02-20T00:36:06.167Z,31.40
2019-02-20T00:38:38.956Z,31.20
2019-02-20T00:41:12.547Z,30.90
2019-02-20T00:43:46.412Z,30.70
2019-02-20T00:46:20.540Z,30.60
2019-02-20T00:48:54.609Z,30.40
2019-02-20T00:51:37.858Z,30.20
2019-02-20T00:54:11.770Z,30.00
2019-02-20T00:56:44.648Z,29.90
2019-02-20T00:59:17.895Z,29.80
2019-02-20T01:01:50.678Z,29.70
2019-02-20T01:04:23.783Z,29.60
2019-02-20T01:06:56.551Z,29.40
2019-02-20T01:09:29.631Z,29.30
2019-02-20T01:12:02.541Z,29.30
2019-02-20T01:14:35.664Z,29.20
2019-02-20T01:17:08.920Z,29.30
2019-02-20T01:19:41.773Z,29.30
2019-02-20T01:22:15.096Z,29.30
2019-02-20T01:24:48.158Z,29.30
2019-02-20T01:27:21.367Z,29.30
2019-02-20T01:29:54.572Z,29.30
2019-02-20T01:32:27.569Z,29.30
2019-02-20T01:35:00.440Z,29.00
2019-02-20T01:37:33.462Z,28.90
2019-02-20T01:40:06.292Z,28.80
2019-02-20T01:42:39.379Z,28.70
2019-02-20T01:45:12.860Z,28.60
2019-02-20T01:47:45.905Z,28.60
2019-02-20T01:50:18.769Z,28.60
2019-02-20T01:52:52.845Z,28.50
2019-02-20T01:55:25.754Z,28.50
2019-02-20T01:57:58.806Z,28.40
2019-02-20T02:00:31.727Z,28.30
2019-02-20T02:03:04.643Z,28.30
2019-02-20T02:05:37.504Z,28.30
2019-02-20T02:08:10.628Z,28.30
2019-02-20T02:10:43.358Z,28.30
2019-02-20T02:13:16.437Z,28.30
2019-02-20T02:15:49.242Z,28.30
2019-02-20T02:18:22.526Z,28.30
2019-02-20T02:20:55.409Z,28.30
2019-02-20T02:23:28.615Z,28.20
2019-02-20T02:26:10.497Z,28.10
2019-02-20T02:28:37.439Z,27.90
2019-02-20T02:31:10.430Z,27.80
2019-02-20T02:33:43.422Z,27.70
2019-02-20T02:36:16.419Z,27.50
2019-02-20T02:38:49.506Z,27.40
2019-02-20T02:41:22.384Z,27.40
2019-02-20T02:43:56.284Z,27.30
2019-02-20T02:46:29.251Z,27.30
2019-02-20T02:49:02.153Z,27.30
2019-02-20T02:51:36.301Z,27.30
2019-02-20T02:54:09.165Z,27.30
2019-02-20T02:56:42.263Z,27.30
2019-02-20T02:59:15.780Z,27.10
2019-02-20T03:01:48.663Z,27.00
2019-02-20T03:04:22.061Z,27.00
2019-02-20T03:06:54.906Z,26.90
2019-02-20T03:09:27.880Z,26.80
2019-02-20T03:12:00.567Z,26.70
2019-02-20T03:14:33.666Z,26.70
2019-02-20T03:17:06.451Z,26.70
2019-02-20T03:19:39.362Z,26.80
2019-02-20T03:22:12.219Z,26.80
2019-02-20T03:24:45.370Z,26.80
2019-02-20T03:27:18.196Z,26.70
2019-02-20T03:29:51.364Z,26.70
2019-02-20T03:32:24.169Z,26.70
2019-02-20T03:34:57.342Z,26.80
2019-02-20T03:37:30.135Z,26.80
2019-02-20T03:40:03.063Z,26.70
2019-02-20T03:42:35.926Z,26.70
2019-02-20T03:45:10.106Z,26.60
2019-02-20T03:47:44.365Z,26.50
2019-02-20T03:50:18.932Z,26.30
2019-02-20T03:52:51.951Z,26.30
2019-02-20T03:55:24.863Z,26.10
2019-02-20T03:57:58.393Z,26.00
2019-02-20T04:00:31.319Z,25.90
2019-02-20T04:03:04.112Z,25.80
2019-02-20T04:05:37.454Z,25.80
2019-02-20T04:08:10.297Z,25.60
2019-02-20T04:10:43.620Z,25.50
2019-02-20T04:13:16.340Z,25.50
2019-02-20T04:15:49.425Z,25.30
2019-02-20T04:18:23.457Z,25.20
2019-02-20T04:20:56.375Z,25.10
2019-02-20T04:23:29.242Z,25.00
2019-02-20T04:26:02.140Z,24.90
2019-02-20T04:28:35.001Z,24.90
2019-02-20T04:31:08.911Z,24.90
2019-02-20T04:33:42.470Z,24.90
2019-02-20T04:36:16.086Z,24.90
2019-02-20T04:38:49.198Z,24.80
2019-02-20T04:41:22.156Z,24.80
2019-02-20T04:43:55.079Z,24.80
2019-02-20T04:46:28.104Z,24.80
2019-02-20T04:49:00.847Z,24.80
2019-02-20T04:51:33.784Z,24.70
2019-02-20T04:54:13.055Z,24.60
2019-02-20T04:56:40.640Z,24.50
2019-02-20T04:59:13.509Z,24.40
2019-02-20T05:01:46.602Z,24.40
2019-02-20T05:04:19.768Z,24.30
2019-02-20T05:06:52.651Z,24.20
2019-02-20T05:09:25.989Z,24.20
2019-02-20T05:11:59.013Z,24.20
2019-02-20T05:14:31.842Z,24.20
2019-02-20T05:17:04.879Z,24.20
2019-02-20T05:19:37.818Z,24.20
2019-02-20T05:22:10.796Z,24.20
2019-02-20T05:24:43.626Z,24.10
2019-02-20T05:27:17.948Z,24.10
2019-02-20T05:29:50.955Z,24.00
2019-02-20T05:32:24.918Z,24.00
2019-02-20T05:34:57.761Z,24.00
2019-02-20T05:37:30.749Z,24.00
2019-02-20T05:40:03.627Z,24.00
2019-02-20T05:42:37.520Z,24.00
2019-02-20T05:45:10.905Z,24.00
2019-02-20T05:47:43.924Z,24.00
2019-02-20T05:50:16.930Z,24.00
2019-02-20T05:52:50.012Z,24.00
2019-02-20T05:55:23.094Z,23.90
2019-02-20T05:57:56.085Z,23.90
2019-02-20T06:00:28.923Z,23.90
2019-02-20T06:03:01.719Z,23.80
2019-02-20T06:05:35.557Z,23.80
2019-02-20T06:08:08.328Z,23.80
2019-02-20T06:10:41.288Z,23.80
2019-02-20T06:13:14.254Z,23.80
2019-02-20T06:15:47.372Z,23.80
2019-02-20T06:18:21.404Z,23.80
2019-02-20T06:20:54.251Z,23.80
2019-02-20T06:23:27.183Z,23.80
2019-02-20T06:26:00.301Z,23.80
2019-02-20T06:28:34.366Z,23.80
2019-02-20T06:31:07.376Z,23.80
2019-02-20T06:33:40.154Z,23.70
2019-02-20T06:36:13.150Z,23.70
2019-02-20T06:38:45.914Z,23.70
2019-02-20T06:41:18.891Z,23.70
2019-02-20T06:43:51.553Z,23.70
2019-02-20T06:46:24.659Z,23.70
2019-02-20T06:48:57.439Z,23.70
2019-02-20T06:51:30.361Z,23.70
2019-02-20T06:54:03.220Z,23.60
2019-02-20T06:56:36.339Z,23.60
2019-02-20T06:59:09.390Z,23.60
2019-02-20T07:01:42.429Z,23.60
2019-02-20T07:04:15.168Z,23.50
2019-02-20T07:06:58.140Z,23.50
2019-02-20T07:09:51.093Z,23.50
2019-02-20T07:12:35.841Z,23.50
2019-02-20T07:15:41.485Z,23.50
2019-02-20T07:18:30.792Z,23.50
2019-02-20T07:21:11.542Z,23.50
2019-02-20T07:23:52.092Z,23.40
2019-02-20T07:26:54.428Z,23.40
2019-02-20T07:29:46.994Z,23.40
2019-02-20T07:32:20.455Z,23.40
2019-02-20T07:34:54.264Z,23.40
2019-02-20T07:37:27.143Z,23.40
2019-02-20T07:40:00.255Z,23.40
2019-02-20T07:42:33.120Z,23.40
2019-02-20T07:45:06.275Z,23.40
2019-02-20T07:47:39.160Z,23.40
2019-02-20T07:50:13.508Z,23.40
2019-02-20T07:52:47.397Z,23.40
2019-02-20T07:55:20.320Z,23.40
2019-02-20T07:57:53.232Z,23.40
2019-02-20T08:00:26.024Z,23.40
2019-02-20T08:03:00.041Z,23.40
2019-02-20T08:05:33.131Z,23.50
2019-02-20T08:08:05.911Z,23.40
2019-02-20T08:10:39.845Z,23.50
2019-02-20T08:13:12.713Z,23.40
2019-02-20T08:15:46.440Z,23.50
2019-02-20T08:18:19.202Z,23.50
2019-02-20T08:20:52.429Z,23.40
2019-02-20T08:23:25.276Z,23.50
2019-02-20T08:25:59.678Z,23.50
2019-02-20T08:28:33.567Z,23.50
2019-02-20T08:31:06.679Z,23.50
2019-02-20T08:33:39.685Z,23.50
2019-02-20T08:36:12.471Z,23.50
2019-02-20T08:38:45.658Z,23.50
2019-02-20T08:41:19.688Z,23.50
2019-02-20T08:43:53.642Z,23.50
2019-02-20T08:46:26.455Z,23.40
2019-02-20T08:48:59.373Z,23.40
2019-02-20T08:51:32.125Z,23.40
2019-02-20T08:54:05.210Z,23.30
2019-02-20T08:56:38.121Z,23.30
2019-02-20T08:59:12.661Z,23.30
2019-02-20T09:01:45.604Z,23.30
2019-02-20T09:04:18.923Z,23.30
2019-02-20T09:06:51.959Z,23.30
2019-02-20T09:09:25.292Z,23.30
2019-02-20T09:11:58.157Z,23.30
2019-02-20T09:14:31.356Z,23.30
2019-02-20T09:17:04.335Z,23.30
2019-02-20T09:19:37.329Z,23.30
2019-02-20T09:22:10.142Z,23.30
2019-02-20T09:24:44.684Z,23.30
2019-02-20T09:27:17.614Z,23.30
2019-02-20T09:29:51.752Z,23.30
2019-02-20T09:32:24.898Z,23.30
2019-02-20T09:34:57.763Z,23.30
2019-02-20T09:37:30.975Z,23.30
2019-02-20T09:40:04.080Z,23.30
2019-02-20T09:42:37.071Z,23.30
2019-02-20T09:45:11.145Z,23.30
2019-02-20T09:47:44.439Z,23.30
2019-02-20T09:50:17.261Z,23.30
2019-02-20T09:52:52.320Z,23.30
2019-02-20T09:55:24.447Z,23.30
2019-02-20T09:57:57.400Z,23.30
2019-02-20T10:00:30.266Z,23.30
2019-02-20T10:03:03.150Z,23.30
2019-02-20T10:05:36.039Z,23.20
2019-02-20T10:08:09.290Z,23.20
2019-02-20T10:10:42.175Z,23.20
2019-02-20T10:13:15.592Z,23.20
2019-02-20T10:16:08.130Z,23.20
2019-02-20T10:18:41.402Z,23.20
2019-02-20T10:21:14.211Z,23.20
2019-02-20T10:23:47.461Z,23.20
2019-02-20T10:26:20.374Z,23.20
2019-02-20T10:28:54.099Z,23.10
2019-02-20T10:31:27.148Z,23.10
2019-02-20T10:33:59.955Z,23.10
2019-02-20T10:36:33.124Z,23.10
2019-02-20T10:39:07.126Z,23.10
2019-02-20T10:41:40.227Z,23.10
2019-02-20T10:44:13.517Z,23.10
2019-02-20T10:46:46.433Z,23.10
2019-02-20T10:49:19.307Z,23.10
2019-02-20T10:51:52.712Z,23.00
2019-02-20T10:54:25.787Z,23.00
2019-02-20T10:56:58.670Z,23.00
2019-02-20T10:59:31.596Z,23.00
2019-02-20T11:02:04.740Z,23.00
2019-02-20T11:04:37.648Z,23.00
2019-02-20T11:07:10.848Z,23.00
2019-02-20T11:09:43.849Z,23.00
2019-02-20T11:12:16.918Z,22.90
2019-02-20T11:14:52.952Z,22.90
2019-02-20T11:17:26.079Z,22.90
2019-02-20T11:19:59.087Z,22.90
2019-02-20T11:22:32.276Z,22.90
2019-02-20T11:25:04.872Z,22.90
2019-02-20T11:27:39.464Z,22.90
2019-02-20T11:30:14.084Z,22.90
2019-02-20T11:32:53.374Z,22.90
2019-02-20T11:35:26.356Z,22.90
2019-02-20T11:37:59.357Z,22.90
2019-02-20T11:40:32.202Z,22.90
2019-02-20T11:43:06.207Z,23.00
2019-02-20T11:45:40.410Z,23.00
2019-02-20T11:48:13.366Z,22.90
2019-02-20T11:50:46.538Z,22.90
2019-02-20T11:53:20.187Z,22.90
2019-02-20T11:55:53.238Z,23.00
2019-02-20T11:58:26.154Z,23.00
2019-02-20T12:00:59.158Z,22.90
2019-02-20T12:03:31.782Z,22.90
2019-02-20T12:06:04.783Z,22.90
2019-02-20T12:08:38.071Z,22.90
2019-02-20T12:11:11.348Z,22.90
2019-02-20T12:13:44.284Z,22.90
2019-02-20T12:16:17.347Z,22.90
2019-02-20T12:18:50.555Z,22.90
2019-02-20T12:21:23.602Z,22.90
2019-02-20T12:23:56.528Z,22.90
2019-02-20T12:26:34.865Z,22.90
2019-02-20T12:29:03.396Z,22.90
2019-02-20T12:31:36.676Z,22.90
2019-02-20T12:34:09.671Z,22.90
2019-02-20T12:36:42.717Z,22.90
2019-02-20T12:39:16.224Z,22.90
2019-02-20T12:41:49.145Z,22.90
2019-02-20T12:44:22.600Z,22.90
2019-02-20T12:46:55.405Z,22.90
2019-02-20T12:49:28.499Z,22.90
2019-02-20T12:52:01.509Z,22.80
2019-02-20T12:54:34.354Z,22.80
2019-02-20T12:57:07.274Z,22.80
2019-02-20T12:59:40.907Z,22.80
2019-02-20T13:02:13.847Z,22.80
2019-02-20T13:04:46.879Z,22.80
2019-02-20T13:07:19.847Z,22.80
2019-02-20T13:09:53.664Z,22.80
2019-02-20T13:12:26.656Z,22.80
2019-02-20T13:14:59.904Z,22.80
2019-02-20T13:17:32.815Z,22.80
2019-02-20T13:20:06.703Z,22.70
2019-02-20T13:22:40.415Z,22.80
2019-02-20T13:25:13.703Z,22.80
2019-02-20T13:27:46.961Z,22.80
2019-02-20T13:30:19.967Z,22.70
2019-02-20T13:32:52.784Z,22.70
2019-02-20T13:35:25.550Z,22.70
2019-02-20T13:37:58.636Z,22.70
2019-02-20T13:40:31.761Z,22.70
2019-02-20T13:43:05.098Z,22.70
2019-02-20T13:45:38.144Z,22.70
2019-02-20T13:48:11.349Z,22.60
2019-02-20T13:50:44.342Z,22.60
2019-02-20T13:53:17.287Z,22.60
2019-02-20T13:55:50.582Z,22.60
2019-02-20T13:58:23.636Z,22.60
2019-02-20T14:00:56.734Z,22.60
2019-02-20T14:03:29.814Z,22.60
2019-02-20T14:06:02.650Z,22.50
2019-02-20T14:08:35.916Z,22.50
2019-02-20T14:11:08.792Z,22.50
2019-02-20T14:13:42.040Z,22.50
2019-02-20T14:16:15.051Z,22.50
2019-02-20T14:18:48.489Z,22.50
2019-02-20T14:21:21.564Z,22.50
2019-02-20T14:23:55.137Z,22.50
2019-02-20T14:26:28.272Z,22.50
2019-02-20T14:29:02.317Z,22.50
2019-02-20T14:31:35.302Z,22.50
2019-02-20T14:34:08.526Z,22.50
2019-02-20T14:36:41.545Z,22.50
2019-02-20T14:39:15.359Z,22.50
2019-02-20T14:41:49.282Z,22.50
2019-02-20T14:44:22.161Z,22.50
2019-02-20T14:46:55.559Z,22.50
2019-02-20T14:49:28.360Z,22.50
2019-02-20T14:52:01.501Z,22.50
2019-02-20T14:54:34.467Z,22.50
2019-02-20T14:57:07.853Z,22.50
2019-02-20T14:59:40.897Z,22.50
2019-02-20T15:02:13.975Z,22.50
2019-02-20T15:04:46.824Z,22.50
2019-02-20T15:07:19.913Z,22.60
2019-02-20T15:09:54.064Z,22.60
2019-02-20T15:12:27.005Z,22.60
2019-02-20T15:14:59.798Z,22.50
2019-02-20T15:17:32.782Z,22.50
2019-02-20T15:20:05.782Z,22.60
2019-02-20T15:22:39.216Z,22.50
2019-02-20T15:25:12.447Z,22.50
2019-02-20T15:27:45.654Z,22.50
2019-02-20T15:30:19.163Z,22.50
2019-02-20T15:32:52.178Z,22.50
2019-02-20T15:35:25.252Z,22.50
2019-02-20T15:37:58.316Z,22.50
2019-02-20T15:40:31.519Z,22.60
2019-02-20T15:43:04.616Z,22.60
2019-02-20T15:45:37.542Z,22.60
2019-02-20T15:48:10.662Z,22.60
2019-02-20T15:50:43.678Z,22.60
2019-02-20T15:53:16.735Z,22.60
2019-02-20T15:55:49.876Z,22.60
2019-02-20T15:58:24.003Z,22.60
2019-02-20T16:00:58.076Z,22.50
2019-02-20T16:03:31.248Z,22.50
2019-02-20T16:06:04.304Z,22.50
2019-02-20T16:08:37.456Z,22.50
2019-02-20T16:11:10.615Z,22.50
2019-02-20T16:13:43.895Z,22.50
2019-02-20T16:16:17.202Z,22.50
2019-02-20T16:18:50.811Z,22.50
2019-02-20T16:21:23.601Z,22.50
2019-02-20T16:23:56.994Z,22.50
2019-02-20T16:26:29.999Z,22.50
2019-02-20T16:29:02.941Z,22.50
2019-02-20T16:31:36.201Z,22.50
2019-02-20T16:34:09.271Z,22.40
2019-02-20T16:36:43.264Z,22.40
2019-02-20T16:39:16.031Z,22.40
2019-02-20T16:41:49.443Z,22.40
2019-02-20T16:44:22.363Z,22.40
2019-02-20T16:46:55.423Z,22.40
2019-02-20T16:49:28.357Z,22.40
2019-02-20T16:52:01.469Z,22.40
2019-02-20T16:54:34.508Z,22.40
2019-02-20T16:57:07.785Z,22.40
2019-02-20T16:59:40.533Z,22.40
2019-02-20T17:02:14.043Z,22.40
2019-02-20T17:04:47.044Z,22.40
2019-02-20T17:07:19.824Z,22.40
2019-02-20T17:09:53.196Z,22.40
2019-02-20T17:12:26.245Z,22.40
2019-02-20T17:14:59.450Z,22.40
2019-02-20T17:17:32.600Z,22.40
2019-02-20T17:20:05.694Z,22.40
2019-02-20T17:22:38.457Z,22.40
2019-02-20T17:25:13.351Z,22.40
2019-02-20T17:27:46.681Z,22.40
2019-02-20T17:30:20.176Z,22.40
2019-02-20T17:32:53.364Z,22.40
2019-02-20T17:35:26.696Z,22.30
2019-02-20T17:37:59.656Z,22.40
2019-02-20T17:40:32.734Z,22.30
2019-02-20T17:43:06.854Z,22.40
2019-02-20T17:45:39.854Z,22.30
2019-02-20T17:48:12.839Z,22.30
2019-02-20T17:50:45.908Z,22.30
2019-02-20T17:53:18.888Z,22.30
2019-02-20T17:55:51.956Z,22.30
2019-02-20T17:58:24.872Z,22.30
2019-02-20T18:00:57.917Z,22.30
2019-02-20T18:03:31.518Z,22.30
2019-02-20T18:06:04.454Z,22.40
2019-02-20T18:08:37.511Z,22.40
2019-02-20T18:11:10.435Z,22.40
2019-02-20T18:13:43.289Z,22.40
2019-02-20T18:16:16.193Z,22.40
2019-02-20T18:18:49.155Z,22.40
2019-02-20T18:21:21.960Z,22.40
2019-02-20T18:23:54.906Z,22.40
2019-02-20T18:26:28.206Z,22.50
2019-02-20T18:29:01.129Z,22.50
2019-02-20T18:31:33.972Z,22.50
2019-02-20T18:34:06.896Z,22.50
2019-02-20T18:36:40.014Z,22.50
2019-02-20T18:39:13.269Z,22.60
2019-02-20T18:41:46.267Z,22.60
2019-02-20T18:44:19.432Z,22.60
2019-02-20T18:46:52.444Z,22.60
2019-02-20T18:49:25.435Z,22.60
2019-02-20T18:51:58.198Z,22.60
2019-02-20T18:54:31.007Z,22.60
2019-02-20T18:57:03.980Z,22.70
2019-02-20T18:59:36.963Z,22.70
2019-02-20T19:02:09.859Z,22.70
2019-02-20T19:04:42.752Z,22.70
2019-02-20T19:07:15.990Z,22.70
2019-02-20T19:09:48.954Z,22.80
2019-02-20T19:12:39.046Z,22.80
2019-02-20T19:15:25.711Z,22.80
2019-02-20T19:18:15.481Z,22.90
2019-02-20T19:20:50.478Z,22.90
2019-02-20T19:23:57.254Z,22.90
2019-02-20T19:26:59.385Z,23.00
2019-02-20T19:29:52.232Z,23.10
2019-02-20T19:32:42.908Z,23.10
2019-02-20T19:35:21.120Z,23.20
2019-02-20T19:38:12.562Z,23.30
2019-02-20T19:40:56.181Z,23.40
2019-02-20T19:43:36.749Z,23.40
2019-02-20T19:46:30.048Z,23.40
2019-02-20T19:49:20.247Z,23.50
2019-02-20T19:52:22.604Z,23.60
2019-02-20T19:54:57.350Z,23.80
2019-02-20T19:57:48.061Z,24.00
2019-02-20T20:00:25.827Z,24.20
2019-02-20T20:03:03.482Z,24.20
2019-02-20T20:05:44.146Z,24.30
2019-02-20T20:08:31.283Z,24.30
2019-02-20T20:11:22.653Z,24.40
2019-02-20T20:14:15.436Z,24.40
2019-02-20T20:16:51.060Z,24.40
2019-02-20T20:19:29.554Z,24.50
2019-02-20T20:22:07.850Z,24.50
2019-02-20T20:24:48.562Z,24.50
2019-02-20T20:27:33.165Z,24.50
2019-02-20T20:30:22.813Z,24.60
2019-02-20T20:33:22.156Z,24.60
2019-02-20T20:36:26.909Z,24.70
2019-02-20T20:39:10.672Z,24.70
2019-02-20T20:42:11.537Z,24.70
2019-02-20T20:44:49.013Z,24.70
2019-02-20T20:47:35.550Z,24.60
2019-02-20T20:50:10.371Z,24.60
2019-02-20T20:52:54.432Z,24.50
2019-02-20T20:55:29.527Z,24.50
2019-02-20T20:58:04.337Z,24.50
2019-02-20T21:00:58.616Z,24.60
2019-02-20T21:03:48.800Z,24.60
2019-02-20T21:06:43.020Z,24.60
2019-02-20T21:09:24.013Z,24.50
2019-02-20T21:12:10.987Z,24.50
2019-02-20T21:14:45.889Z,24.60
2019-02-20T21:17:23.902Z,24.60
2019-02-20T21:20:02.031Z,24.70
2019-02-20T21:22:53.239Z,24.80
2019-02-20T21:25:42.586Z,24.80
2019-02-20T21:28:40.034Z,24.90
2019-02-20T21:31:29.667Z,24.90
2019-02-20T21:34:21.986Z,24.90
2019-02-20T21:37:25.895Z,25.00
2019-02-20T21:40:26.282Z,25.00
2019-02-20T21:43:08.022Z,25.10
2019-02-20T21:45:46.020Z,25.30
2019-02-20T21:48:30.697Z,25.40
2019-02-20T21:51:11.405Z,25.70
2019-02-20T21:54:01.798Z,26.00
2019-02-20T21:56:39.073Z,26.20
2019-02-20T21:59:25.958Z,26.30
2019-02-20T22:02:23.830Z,26.50
2019-02-20T22:05:07.703Z,26.80
2019-02-20T22:07:58.919Z,26.90
2019-02-20T22:10:36.555Z,26.80
2019-02-20T22:13:28.004Z,26.90
2019-02-20T22:16:22.219Z,27.10
2019-02-20T22:19:06.404Z,27.10
2019-02-20T22:21:57.997Z,27.10
2019-02-20T22:25:07.046Z,27.30
2019-02-20T22:27:48.596Z,27.80
2019-02-20T22:30:45.035Z,28.60
2019-02-20T22:33:26.541Z,29.20
2019-02-20T22:36:13.247Z,29.80
2019-02-20T22:39:11.119Z,30.40
2019-02-20T22:41:54.972Z,30.80
2019-02-20T22:44:50.394Z,30.80
2019-02-20T22:47:25.675Z,30.40
2019-02-20T22:50:09.578Z,30.10
2019-02-20T22:52:44.572Z,29.90
2019-02-20T22:55:52.576Z,29.70
2019-02-20T22:58:29.938Z,29.80
2019-02-20T23:01:25.803Z,29.60
2019-02-20T23:04:18.664Z,29.40
2019-02-20T23:07:22.124Z,29.40
2019-02-20T23:10:02.705Z,29.30
2019-02-20T23:12:38.241Z,29.00
2019-02-20T23:15:11.058Z,28.90
2019-02-20T23:17:43.919Z,28.70
2019-02-20T23:20:16.836Z,28.60
2019-02-20T23:22:50.272Z,28.50
2019-02-20T23:25:23.205Z,28.40
2019-02-20T23:27:56.333Z,28.20
2019-02-20T23:30:29.402Z,28.00
2019-02-20T23:33:02.371Z,27.90
2019-02-20T23:35:35.364Z,27.80
2019-02-20T23:38:08.279Z,27.60
2019-02-20T23:40:41.138Z,27.50
2019-02-20T23:43:15.046Z,27.40
2019-02-20T23:45:47.805Z,27.20
2019-02-20T23:48:20.894Z,27.00
2019-02-20T23:50:53.748Z,26.90
2019-02-20T23:53:26.516Z,26.60
2019-02-20T23:55:59.503Z,26.40
2019-02-20T23:58:32.640Z,26.30
